createdAt,value
2019-05-18T00:00:47.516Z,95083
2019-05-18T00:05:44.581Z,95075.1
2019-05-18T00:10:41.432Z,95080.3
2019-05-18T00:15:38.481Z,95077.8
2019-05-18T00:20:35.514Z,95077.7
2019-05-18T00:25:32.454Z,95085.2
2019-05-18T00:30:29.346Z,95079.4
2019-05-18T00:35:26.478Z,95073.7
2019-05-18T00:40:23.467Z,95069.8
2019-05-18T00:45:20.505Z,95065.4
2019-05-18T00:50:16.921Z,95072.9
2019-05-18T00:55:13.946Z,95072.2
2019-05-18T01:00:10.950Z,95066.6
2019-05-18T01:05:07.501Z,95059.6
2019-05-18T01:10:03.952Z,95060.8
2019-05-18T01:15:01.065Z,95046.8
2019-05-18T01:19:58.165Z,95049.2
2019-05-18T01:24:54.641Z,95050.2
2019-05-18T01:29:51.491Z,95060.2
2019-05-18T01:34:48.330Z,95058.9
2019-05-18T01:39:45.171Z,95052.6
2019-05-18T01:44:42.137Z,95040.6
2019-05-18T01:49:39.076Z,95038.5
2019-05-18T01:54:35.735Z,95037.1
2019-05-18T01:59:32.759Z,94963.8
2019-05-18T02:04:29.639Z,95030.4
2019-05-18T02:09:26.740Z,95024.4
2019-05-18T02:14:23.741Z,95023.2
2019-05-18T02:19:20.626Z,95013.8
2019-05-18T02:24:17.559Z,95016.8
2019-05-18T02:29:14.599Z,95018.1
2019-05-18T02:34:11.399Z,94962.2
2019-05-18T02:39:08.277Z,94874.7
2019-05-18T02:44:05.217Z,95000.4
2019-05-18T02:49:02.206Z,95023.3
2019-05-18T02:53:59.220Z,95014
2019-05-18T02:58:56.034Z,95013.3
2019-05-18T03:03:52.925Z,95015.5
2019-05-18T03:08:53.684Z,95026.1
2019-05-18T03:13:49.997Z,95030.8
2019-05-18T03:18:47.122Z,95033.4
2019-05-18T03:23:44.532Z,94954.1
2019-05-18T03:28:41.642Z,95008.1
2019-05-18T03:33:40.663Z,95048.7
2019-05-18T03:38:37.140Z,95006.3
2019-05-18T03:43:34.969Z,95046
2019-05-18T03:48:32.103Z,95046.8
2019-05-18T03:53:32.556Z,94977.2
2019-05-18T03:58:28.991Z,95107.8
2019-05-18T04:03:28.026Z,95054.9
2019-05-18T04:08:25.258Z,94985.7
2019-05-18T04:13:24.625Z,95054.6
2019-05-18T04:18:21.195Z,94979.8
2019-05-18T04:23:19.838Z,95059.4
2019-05-18T04:28:16.593Z,95036.1
2019-05-18T04:33:15.128Z,95061.8
2019-05-18T04:38:11.827Z,95014.9
2019-05-18T04:43:09.221Z,95099.7
2019-05-18T04:48:05.995Z,95063.3
2019-05-18T04:53:04.888Z,95070.7
2019-05-18T04:58:01.572Z,94992.1
2019-05-18T05:02:58.211Z,95020.4
2019-05-18T05:07:54.992Z,95000.5
2019-05-18T05:12:51.766Z,95005.6
2019-05-18T05:17:49.414Z,95086.4
2019-05-18T05:22:47.030Z,95088.5
2019-05-18T05:27:43.979Z,95084.6
2019-05-18T05:32:41.591Z,95146.2
2019-05-18T05:37:38.392Z,95083.6
2019-05-18T05:42:35.513Z,95092.6
2019-05-18T05:47:32.952Z,95017.4
2019-05-18T05:52:31.097Z,95094
2019-05-18T05:57:28.040Z,95123.4
2019-05-18T06:02:24.858Z,95092.9
2019-05-18T06:07:21.839Z,95091
2019-05-18T06:12:19.060Z,95059.4
2019-05-18T06:17:16.309Z,95019.3
2019-05-18T06:22:14.052Z,95095.3
2019-05-18T06:27:10.790Z,95091.6
2019-05-18T06:32:08.139Z,95026
2019-05-18T06:37:04.970Z,95102.7
2019-05-18T06:42:01.705Z,95104.6
2019-05-18T06:46:58.518Z,95091.5
2019-05-18T06:51:55.886Z,95089
2019-05-18T06:56:52.711Z,95093.7
2019-05-18T07:01:49.499Z,95088.9
2019-05-18T07:06:46.341Z,95087.9
2019-05-18T07:11:43.247Z,95018.5
2019-05-18T07:16:40.583Z,95061.6
2019-05-18T07:21:38.038Z,95006.3
2019-05-18T07:26:34.817Z,95083.3
2019-05-18T07:31:31.724Z,95081.8
2019-05-18T07:36:28.836Z,95075.5
2019-05-18T07:41:26.568Z,95001.6
2019-05-18T07:46:23.221Z,95079
2019-05-18T07:51:20.390Z,95068.9
2019-05-18T07:56:17.923Z,95069
2019-05-18T08:01:15.009Z,95064.7
2019-05-18T08:06:11.924Z,95071.8
2019-05-18T08:11:09.116Z,95068.5
2019-05-18T08:16:06.356Z,94974.6
2019-05-18T08:21:03.721Z,95067.6
2019-05-18T08:26:00.419Z,95060.6
2019-05-18T08:30:57.464Z,95054.7
2019-05-18T08:35:54.512Z,95049.5
2019-05-18T08:40:51.681Z,95045.9
2019-05-18T08:45:48.764Z,95038.7
2019-05-18T08:50:45.738Z,95031.4
2019-05-18T08:55:42.917Z,94898.6
2019-05-18T09:00:39.963Z,95034.8
2019-05-18T09:05:37.021Z,95017.5
2019-05-18T09:10:34.044Z,95031.9
2019-05-18T09:15:30.929Z,95032.8
2019-05-18T09:20:28.135Z,95023.4
2019-05-18T09:25:25.237Z,95011.8
2019-05-18T09:30:22.361Z,95002.2
2019-05-18T09:35:19.319Z,94995.9
2019-05-18T09:40:16.581Z,94987.6
2019-05-18T09:45:13.876Z,94978
2019-05-18T09:50:11.155Z,94978.9
2019-05-18T09:55:08.352Z,94976.2
2019-05-18T10:00:05.474Z,94971.8
2019-05-18T10:05:02.735Z,94972
2019-05-18T10:10:00.053Z,95007.1
2019-05-18T10:14:57.343Z,95006.5
2019-05-18T10:19:54.334Z,94914.3
2019-05-18T10:24:52.200Z,94950.4
2019-05-18T10:29:48.637Z,94956.4
2019-05-18T10:34:45.735Z,94871.6
2019-05-18T10:39:43.119Z,94995.7
2019-05-18T10:44:40.223Z,94864.4
2019-05-18T10:49:37.410Z,94924.6
2019-05-18T10:54:34.744Z,94952.4
2019-05-18T10:59:31.881Z,94878
2019-05-18T11:04:29.114Z,94953.1
2019-05-18T11:09:26.508Z,94896
2019-05-18T11:14:24.217Z,94840.1
2019-05-18T11:19:20.954Z,94827.9
2019-05-18T11:24:18.155Z,94822
2019-05-18T11:29:15.826Z,94796.6
2019-05-18T11:34:12.917Z,94807.3
2019-05-18T11:39:10.121Z,94808.1
2019-05-18T11:44:10.550Z,94805.2
2019-05-18T11:49:04.920Z,94788
2019-05-18T11:54:02.228Z,94790.5
2019-05-18T11:58:59.618Z,94785.1
2019-05-18T12:03:56.829Z,94779.8
2019-05-18T12:08:54.335Z,94774.3
2019-05-18T12:13:51.636Z,94773.1
2019-05-18T12:18:48.544Z,94748.7
2019-05-18T12:23:45.806Z,94821.3
2019-05-18T12:28:43.067Z,94750.5
2019-05-18T12:33:40.171Z,94750.7
2019-05-18T12:38:37.569Z,94742.4
2019-05-18T12:43:34.804Z,94735.6
2019-05-18T12:48:32.764Z,94769.8
2019-05-18T12:53:30.309Z,94728
2019-05-18T12:58:27.606Z,94721.5
2019-05-18T13:03:24.724Z,94722
2019-05-18T13:08:21.885Z,94711.2
2019-05-18T13:13:19.245Z,94720.7
2019-05-18T13:18:16.356Z,94705.2
2019-05-18T13:23:13.772Z,94706.8
2019-05-18T13:28:10.990Z,94709.7
2019-05-18T13:33:08.130Z,94735.9
2019-05-18T13:38:05.089Z,94732.4
2019-05-18T13:43:02.448Z,94679.9
2019-05-18T13:47:59.563Z,94734.4
2019-05-18T13:52:56.859Z,94729.7
2019-05-18T13:57:54.754Z,94729.6
2019-05-18T14:02:51.768Z,94728
2019-05-18T14:07:48.898Z,94675.9
2019-05-18T14:12:46.104Z,94723.9
2019-05-18T14:17:43.058Z,94715.1
2019-05-18T14:22:40.348Z,94666
2019-05-18T14:27:37.637Z,94721
2019-05-18T14:32:34.743Z,94673.3
2019-05-18T14:37:31.737Z,94672.4
2019-05-18T14:42:29.014Z,94657.3
2019-05-18T14:47:27.485Z,94660.6
2019-05-18T14:52:23.266Z,94674.1
2019-05-18T14:57:20.270Z,94658
2019-05-18T15:02:18.177Z,94663.9
2019-05-18T15:07:15.448Z,94637.7
2019-05-18T15:12:12.384Z,94629.4
2019-05-18T15:17:09.766Z,94735.8
2019-05-18T15:22:07.194Z,94628.5
2019-05-18T15:27:04.621Z,94625.6
2019-05-18T15:32:01.566Z,94627.6
2019-05-18T15:36:58.333Z,94637.6
2019-05-18T15:41:55.669Z,94639.5
2019-05-18T15:46:52.393Z,94634.9
2019-05-18T15:51:49.512Z,94631.9
2019-05-18T15:56:46.694Z,94625
2019-05-18T16:01:43.811Z,94643.8
2019-05-18T16:06:41.016Z,94643.7
2019-05-18T16:11:38.358Z,94649.3
2019-05-18T16:16:35.323Z,94659.6
2019-05-18T16:21:32.420Z,94655.1
2019-05-18T16:26:29.689Z,94649.3
2019-05-18T16:31:26.801Z,94650.2
2019-05-18T16:36:24.227Z,94651.4
2019-05-18T16:41:21.240Z,94660.4
2019-05-18T16:46:18.260Z,94659.8
2019-05-18T16:51:15.948Z,94737
2019-05-18T16:56:12.883Z,94659.6
2019-05-18T17:01:10.146Z,94652.8
2019-05-18T17:06:07.125Z,94636.1
2019-05-18T17:11:04.099Z,94655.6
2019-05-18T17:16:01.329Z,94658.2
2019-05-18T17:20:58.238Z,94634.4
2019-05-18T17:25:55.156Z,94034.8
2019-05-18T17:30:51.975Z,94664.2
2019-05-18T17:35:59.638Z,94662.8
2019-05-18T17:40:46.413Z,94674.6
2019-05-18T17:45:43.177Z,94680.5
2019-05-18T17:50:40.354Z,94680.7
2019-05-18T17:55:37.402Z,94674.3
2019-05-18T18:00:34.660Z,94683.7
2019-05-18T18:05:31.634Z,94691.8
2019-05-18T18:10:28.771Z,94688
2019-05-18T18:15:25.827Z,94697.6
2019-05-18T18:20:22.833Z,94693.5
2019-05-18T18:25:20.209Z,94710.9
2019-05-18T18:30:17.300Z,94702.2
2019-05-18T18:35:14.313Z,94714.6
2019-05-18T18:40:11.370Z,94715.5
2019-05-18T18:45:08.418Z,94713.8
2019-05-18T18:50:05.435Z,94723.3
2019-05-18T18:55:02.503Z,94728.5
2019-05-18T18:59:59.151Z,94732.6
2019-05-18T19:04:56.114Z,94738.6
2019-05-18T19:09:53.409Z,94735.8
2019-05-18T19:14:50.231Z,94743.1
2019-05-18T19:19:47.213Z,94747.1
2019-05-18T19:24:44.007Z,94745
2019-05-18T19:29:41.016Z,94750.4
2019-05-18T19:34:38.047Z,94743.4
2019-05-18T19:39:35.362Z,94750.6
2019-05-18T19:44:32.155Z,94760.2
2019-05-18T19:49:29.174Z,94760.3
2019-05-18T19:54:26.314Z,94748.6
2019-05-18T19:59:22.906Z,94746.8
2019-05-18T20:04:19.538Z,94732.9
2019-05-18T20:09:16.735Z,94732.1
2019-05-18T20:14:14.229Z,94736.7
2019-05-18T20:19:11.215Z,94760.8
2019-05-18T20:24:08.469Z,94775.7
2019-05-18T20:29:05.582Z,94767.3
2019-05-18T20:34:02.866Z,94764.8
2019-05-18T20:38:59.690Z,94775.5
2019-05-18T20:43:56.920Z,94790.2
2019-05-18T20:48:54.093Z,94792.6
2019-05-18T20:53:51.100Z,94792.4
2019-05-18T20:58:48.419Z,94823.7
2019-05-18T21:03:45.425Z,94786.7
2019-05-18T21:08:42.494Z,94785.6
2019-05-18T21:13:39.741Z,94760.8
2019-05-18T21:18:36.964Z,94784.4
2019-05-18T21:23:34.641Z,94792.2
2019-05-18T21:28:32.028Z,94852.6
2019-05-18T21:33:28.966Z,94786.9
2019-05-18T21:38:26.311Z,94787.5
2019-05-18T21:43:23.230Z,94826.2
2019-05-18T21:48:20.039Z,94777.5
2019-05-18T21:53:17.424Z,94781
2019-05-18T21:58:14.617Z,94782.3
2019-05-18T22:03:11.768Z,94846
2019-05-18T22:08:08.865Z,94722.3
2019-05-18T22:13:06.621Z,94779.4
2019-05-18T22:18:03.363Z,94855.4
2019-05-18T22:23:01.189Z,94794.7
2019-05-18T22:27:58.582Z,94790.3
2019-05-18T22:32:55.914Z,94780.2
2019-05-18T22:37:53.049Z,94909.4
2019-05-18T22:42:49.981Z,94891.6
2019-05-18T22:47:47.036Z,94777.6
2019-05-18T22:52:43.859Z,94778
2019-05-18T22:57:41.639Z,94779.7
2019-05-18T23:02:38.560Z,94701.6
2019-05-18T23:07:35.459Z,94791.5
2019-05-18T23:12:32.573Z,94791.4
2019-05-18T23:17:29.586Z,94779.9
2019-05-18T23:22:26.894Z,94897.1
2019-05-18T23:27:24.308Z,94775.5
2019-05-18T23:32:21.451Z,94791.3
2019-05-18T23:37:19.149Z,94757.7
2019-05-18T23:42:16.552Z,94791.3
2019-05-18T23:47:13.470Z,94791.8
2019-05-18T23:52:10.805Z,94828.6
2019-05-18T23:57:07.778Z,94801.9
